sensor_id;sensor_type;location;lat;lon;timestamp;temperature;humidity
4635;DHT22;2330;48.158;11.816;2024-02-04T00:02:06;6.10;98.50
4635;DHT22;2330;48.158;11.816;2024-02-04T00:04:34;6.10;98.50
4635;DHT22;2330;48.158;11.816;2024-02-04T00:07:01;6.10;98.50
4635;DHT22;2330;48.158;11.816;2024-02-04T00:09:28;6.00;98.50
4635;DHT22;2330;48.158;11.816;2024-02-04T00:11:55;6.10;98.50
4635;DHT22;2330;48.158;11.816;2024-02-04T00:14:22;6.10;98.50
4635;DHT22;2330;48.158;11.816;2024-02-04T00:16:49;6.10;98.50
4635;DHT22;2330;48.158;11.816;2024-02-04T00:19:16;6.00;98.50
4635;DHT22;2330;48.158;11.816;2024-02-04T00:21:43;6.00;98.50
4635;DHT22;2330;48.158;11.816;2024-02-04T00:24:09;6.10;98.50
4635;DHT22;2330;48.158;11.816;2024-02-04T00:26:36;6.00;98.50
4635;DHT22;2330;48.158;11.816;2024-02-04T00:29:03;6.00;98.50
4635;DHT22;2330;48.158;11.816;2024-02-04T00:31:30;6.00;98.50
4635;DHT22;2330;48.158;11.816;2024-02-04T00:33:57;6.00;98.50
4635;DHT22;2330;48.158;11.816;2024-02-04T00:36:24;6.00;98.50
4635;DHT22;2330;48.158;11.816;2024-02-04T00:38:50;6.00;98.50
4635;DHT22;2330;48.158;11.816;2024-02-04T00:41:17;6.00;98.50
4635;DHT22;2330;48.158;11.816;2024-02-04T00:43:44;6.00;98.50
4635;DHT22;2330;48.158;11.816;2024-02-04T00:46:11;6.00;98.50
4635;DHT22;2330;48.158;11.816;2024-02-04T00:48:38;6.00;98.50
4635;DHT22;2330;48.158;11.816;2024-02-04T00:51:07;5.90;98.50
4635;DHT22;2330;48.158;11.816;2024-02-04T00:53:34;6.00;98.50
4635;DHT22;2330;48.158;11.816;2024-02-04T00:56:02;6.00;98.50
4635;DHT22;2330;48.158;11.816;2024-02-04T00:58:29;6.00;98.50
4635;DHT22;2330;48.158;11.816;2024-02-04T01:00:56;5.90;98.50
4635;DHT22;2330;48.158;11.816;2024-02-04T01:03:23;5.90;98.50
4635;DHT22;2330;48.158;11.816;2024-02-04T01:05:50;5.90;98.50
4635;DHT22;2330;48.158;11.816;2024-02-04T01:08:17;5.90;98.50
4635;DHT22;2330;48.158;11.816;2024-02-04T01:10:44;5.90;98.50
4635;DHT22;2330;48.158;11.816;2024-02-04T01:13:11;5.90;98.50
4635;DHT22;2330;48.158;11.816;2024-02-04T01:15:38;5.90;98.50
4635;DHT22;2330;48.158;11.816;2024-02-04T01:18:05;6.00;98.50
4635;DHT22;2330;48.158;11.816;2024-02-04T01:20:31;6.00;98.50
4635;DHT22;2330;48.158;11.816;2024-02-04T01:22:58;6.00;98.50
4635;DHT22;2330;48.158;11.816;2024-02-04T01:25:25;6.00;98.50
4635;DHT22;2330;48.158;11.816;2024-02-04T01:27:52;6.00;98.50
4635;DHT22;2330;48.158;11.816;2024-02-04T01:30:18;6.00;98.50
4635;DHT22;2330;48.158;11.816;2024-02-04T01:32:45;5.90;98.50
4635;DHT22;2330;48.158;11.816;2024-02-04T01:35:13;5.90;98.50
4635;DHT22;2330;48.158;11.816;2024-02-04T01:37:42;5.90;98.50
4635;DHT22;2330;48.158;11.816;2024-02-04T01:40:10;5.90;98.50
4635;DHT22;2330;48.158;11.816;2024-02-04T01:42:37;5.80;98.50
4635;DHT22;2330;48.158;11.816;2024-02-04T01:45:04;5.80;98.50
4635;DHT22;2330;48.158;11.816;2024-02-04T01:47:32;5.80;98.50
4635;DHT22;2330;48.158;11.816;2024-02-04T01:49:59;5.70;98.50
4635;DHT22;2330;48.158;11.816;2024-02-04T01:52:27;5.70;98.50
4635;DHT22;2330;48.158;11.816;2024-02-04T01:54:54;5.70;98.50
4635;DHT22;2330;48.158;11.816;2024-02-04T01:57:21;5.70;98.50
4635;DHT22;2330;48.158;11.816;2024-02-04T01:59:48;5.80;98.50
4635;DHT22;2330;48.158;11.816;2024-02-04T02:02:18;5.80;98.50
4635;DHT22;2330;48.158;11.816;2024-02-04T02:04:46;5.80;98.50
4635;DHT22;2330;48.158;11.816;2024-02-04T02:07:13;5.80;98.50
4635;DHT22;2330;48.158;11.816;2024-02-04T02:09:43;5.80;98.50
4635;DHT22;2330;48.158;11.816;2024-02-04T02:12:20;5.80;98.50
4635;DHT22;2330;48.158;11.816;2024-02-04T02:14:59;5.80;98.50
4635;DHT22;2330;48.158;11.816;2024-02-04T02:17:35;5.80;98.50
4635;DHT22;2330;48.158;11.816;2024-02-04T02:20:26;5.80;98.50
4635;DHT22;2330;48.158;11.816;2024-02-04T02:23:03;5.80;98.50
4635;DHT22;2330;48.158;11.816;2024-02-04T02:25:36;5.70;98.50
4635;DHT22;2330;48.158;11.816;2024-02-04T02:28:03;5.70;98.50
4635;DHT22;2330;48.158;11.816;2024-02-04T02:30:30;5.70;98.50
4635;DHT22;2330;48.158;11.816;2024-02-04T02:32:57;5.80;98.50
4635;DHT22;2330;48.158;11.816;2024-02-04T02:35:25;5.80;98.50
4635;DHT22;2330;48.158;11.816;2024-02-04T02:38:11;5.80;98.50
4635;DHT22;2330;48.158;11.816;2024-02-04T02:40:45;5.80;98.50
4635;DHT22;2330;48.158;11.816;2024-02-04T02:43:13;5.80;98.50
4635;DHT22;2330;48.158;11.816;2024-02-04T02:45:42;5.90;98.50
4635;DHT22;2330;48.158;11.816;2024-02-04T02:48:10;5.90;98.50
4635;DHT22;2330;48.158;11.816;2024-02-04T02:50:38;5.90;98.50
4635;DHT22;2330;48.158;11.816;2024-02-04T02:53:04;5.90;98.50
4635;DHT22;2330;48.158;11.816;2024-02-04T02:55:31;5.90;98.50
4635;DHT22;2330;48.158;11.816;2024-02-04T02:57:58;5.90;98.50
4635;DHT22;2330;48.158;11.816;2024-02-04T03:00:25;5.90;98.50
4635;DHT22;2330;48.158;11.816;2024-02-04T03:02:52;5.90;98.50
4635;DHT22;2330;48.158;11.816;2024-02-04T03:05:19;5.80;98.50
4635;DHT22;2330;48.158;11.816;2024-02-04T03:07:46;5.80;98.50
4635;DHT22;2330;48.158;11.816;2024-02-04T03:10:13;5.80;98.50
4635;DHT22;2330;48.158;11.816;2024-02-04T03:12:40;5.80;98.50
4635;DHT22;2330;48.158;11.816;2024-02-04T03:15:07;5.80;98.50
4635;DHT22;2330;48.158;11.816;2024-02-04T03:17:34;5.90;98.50
4635;DHT22;2330;48.158;11.816;2024-02-04T03:20:01;5.90;98.50
4635;DHT22;2330;48.158;11.816;2024-02-04T03:22:28;5.90;98.50
4635;DHT22;2330;48.158;11.816;2024-02-04T03:24:54;5.90;98.50
4635;DHT22;2330;48.158;11.816;2024-02-04T03:27:21;6.00;98.50
4635;DHT22;2330;48.158;11.816;2024-02-04T03:29:48;6.00;98.50
4635;DHT22;2330;48.158;11.816;2024-02-04T03:32:15;6.00;98.50
4635;DHT22;2330;48.158;11.816;2024-02-04T03:34:42;6.00;98.50
4635;DHT22;2330;48.158;11.816;2024-02-04T03:37:09;6.00;98.50
4635;DHT22;2330;48.158;11.816;2024-02-04T03:39:36;6.10;98.50
4635;DHT22;2330;48.158;11.816;2024-02-04T03:42:03;6.10;98.50
4635;DHT22;2330;48.158;11.816;2024-02-04T03:44:30;6.20;98.50
4635;DHT22;2330;48.158;11.816;2024-02-04T03:46:57;6.20;98.50
4635;DHT22;2330;48.158;11.816;2024-02-04T03:49:24;6.20;98.50
4635;DHT22;2330;48.158;11.816;2024-02-04T03:51:51;6.20;98.50
4635;DHT22;2330;48.158;11.816;2024-02-04T03:54:18;6.20;98.50
4635;DHT22;2330;48.158;11.816;2024-02-04T03:56:46;6.20;98.50
4635;DHT22;2330;48.158;11.816;2024-02-04T03:59:13;6.20;98.50
4635;DHT22;2330;48.158;11.816;2024-02-04T04:01:40;6.20;98.50
4635;DHT22;2330;48.158;11.816;2024-02-04T04:04:07;6.20;98.50
4635;DHT22;2330;48.158;11.816;2024-02-04T04:06:34;6.20;98.50
4635;DHT22;2330;48.158;11.816;2024-02-04T04:09:01;6.20;98.50
4635;DHT22;2330;48.158;11.816;2024-02-04T04:11:28;6.20;98.50
4635;DHT22;2330;48.158;11.816;2024-02-04T04:13:54;6.20;98.50
4635;DHT22;2330;48.158;11.816;2024-02-04T04:16:22;6.20;98.50
4635;DHT22;2330;48.158;11.816;2024-02-04T04:18:49;6.10;98.50
4635;DHT22;2330;48.158;11.816;2024-02-04T04:21:16;6.10;98.50
4635;DHT22;2330;48.158;11.816;2024-02-04T04:23:44;6.10;98.50
4635;DHT22;2330;48.158;11.816;2024-02-04T04:26:11;6.00;98.50
4635;DHT22;2330;48.158;11.816;2024-02-04T04:28:38;6.00;98.50
4635;DHT22;2330;48.158;11.816;2024-02-04T04:31:04;6.00;98.50
4635;DHT22;2330;48.158;11.816;2024-02-04T04:33:31;6.00;98.50
4635;DHT22;2330;48.158;11.816;2024-02-04T04:35:58;6.00;98.50
4635;DHT22;2330;48.158;11.816;2024-02-04T04:38:25;6.00;98.50
4635;DHT22;2330;48.158;11.816;2024-02-04T04:40:52;6.00;98.50
4635;DHT22;2330;48.158;11.816;2024-02-04T04:43:19;6.00;98.50
4635;DHT22;2330;48.158;11.816;2024-02-04T04:45:46;6.00;98.50
4635;DHT22;2330;48.158;11.816;2024-02-04T04:48:13;6.00;98.50
4635;DHT22;2330;48.158;11.816;2024-02-04T04:50:40;6.00;98.50
4635;DHT22;2330;48.158;11.816;2024-02-04T04:53:06;6.00;98.50
4635;DHT22;2330;48.158;11.816;2024-02-04T04:55:33;6.00;98.50
4635;DHT22;2330;48.158;11.816;2024-02-04T04:58:00;6.00;98.50
4635;DHT22;2330;48.158;11.816;2024-02-04T05:00:27;6.00;98.50
4635;DHT22;2330;48.158;11.816;2024-02-04T05:02:54;6.00;98.50
4635;DHT22;2330;48.158;11.816;2024-02-04T05:05:21;6.00;98.50
4635;DHT22;2330;48.158;11.816;2024-02-04T05:07:47;5.90;98.50
4635;DHT22;2330;48.158;11.816;2024-02-04T05:10:15;5.90;98.50
4635;DHT22;2330;48.158;11.816;2024-02-04T05:12:41;5.90;98.50
4635;DHT22;2330;48.158;11.816;2024-02-04T05:15:08;5.90;98.50
4635;DHT22;2330;48.158;11.816;2024-02-04T05:17:35;5.90;98.50
4635;DHT22;2330;48.158;11.816;2024-02-04T05:20:02;5.90;98.50
4635;DHT22;2330;48.158;11.816;2024-02-04T05:22:30;5.80;98.50
4635;DHT22;2330;48.158;11.816;2024-02-04T05:24:57;5.80;98.50
4635;DHT22;2330;48.158;11.816;2024-02-04T05:27:25;5.90;98.50
4635;DHT22;2330;48.158;11.816;2024-02-04T05:29:52;5.90;98.50
4635;DHT22;2330;48.158;11.816;2024-02-04T05:32:19;5.90;98.50
4635;DHT22;2330;48.158;11.816;2024-02-04T05:34:46;5.90;98.50
4635;DHT22;2330;48.158;11.816;2024-02-04T05:37:13;6.00;98.50
4635;DHT22;2330;48.158;11.816;2024-02-04T05:39:40;6.00;98.50
4635;DHT22;2330;48.158;11.816;2024-02-04T05:42:07;6.10;98.50
4635;DHT22;2330;48.158;11.816;2024-02-04T05:44:33;6.10;98.50
4635;DHT22;2330;48.158;11.816;2024-02-04T05:47:00;6.10;98.50
4635;DHT22;2330;48.158;11.816;2024-02-04T05:49:27;6.10;98.50
4635;DHT22;2330;48.158;11.816;2024-02-04T05:51:54;6.10;98.50
4635;DHT22;2330;48.158;11.816;2024-02-04T05:54:21;6.00;98.50
4635;DHT22;2330;48.158;11.816;2024-02-04T05:56:48;5.90;98.50
4635;DHT22;2330;48.158;11.816;2024-02-04T05:59:14;5.90;98.50
4635;DHT22;2330;48.158;11.816;2024-02-04T06:01:42;5.90;98.50
4635;DHT22;2330;48.158;11.816;2024-02-04T06:04:10;5.80;98.50
4635;DHT22;2330;48.158;11.816;2024-02-04T06:06:37;5.80;98.50
4635;DHT22;2330;48.158;11.816;2024-02-04T06:09:04;5.90;98.50
4635;DHT22;2330;48.158;11.816;2024-02-04T06:11:31;5.80;98.50
4635;DHT22;2330;48.158;11.816;2024-02-04T06:13:57;5.90;98.50
4635;DHT22;2330;48.158;11.816;2024-02-04T06:16:24;5.90;98.50
4635;DHT22;2330;48.158;11.816;2024-02-04T06:18:51;5.90;98.50
4635;DHT22;2330;48.158;11.816;2024-02-04T06:21:22;5.90;98.50
4635;DHT22;2330;48.158;11.816;2024-02-04T06:23:49;5.90;98.50
4635;DHT22;2330;48.158;11.816;2024-02-04T06:26:16;6.00;98.50
4635;DHT22;2330;48.158;11.816;2024-02-04T06:28:43;6.00;98.50
4635;DHT22;2330;48.158;11.816;2024-02-04T06:31:13;6.00;98.50
4635;DHT22;2330;48.158;11.816;2024-02-04T06:33:40;6.00;98.50
4635;DHT22;2330;48.158;11.816;2024-02-04T06:36:10;6.10;98.50
4635;DHT22;2330;48.158;11.816;2024-02-04T06:38:37;6.10;98.50
4635;DHT22;2330;48.158;11.816;2024-02-04T06:41:04;6.20;98.50
4635;DHT22;2330;48.158;11.816;2024-02-04T06:43:31;6.20;98.50
4635;DHT22;2330;48.158;11.816;2024-02-04T06:46:02;6.20;98.50
4635;DHT22;2330;48.158;11.816;2024-02-04T06:48:30;6.20;98.50
4635;DHT22;2330;48.158;11.816;2024-02-04T06:50:57;6.20;98.50
4635;DHT22;2330;48.158;11.816;2024-02-04T06:53:24;6.20;98.50
4635;DHT22;2330;48.158;11.816;2024-02-04T06:55:50;6.20;98.50
4635;DHT22;2330;48.158;11.816;2024-02-04T06:58:17;6.20;98.50
4635;DHT22;2330;48.158;11.816;2024-02-04T07:00:45;6.20;98.50
4635;DHT22;2330;48.158;11.816;2024-02-04T07:03:13;6.30;98.50
4635;DHT22;2330;48.158;11.816;2024-02-04T07:05:40;6.30;98.50
4635;DHT22;2330;48.158;11.816;2024-02-04T07:08:07;6.30;98.50
4635;DHT22;2330;48.158;11.816;2024-02-04T07:10:35;6.30;98.50
4635;DHT22;2330;48.158;11.816;2024-02-04T07:13:01;6.30;98.50
4635;DHT22;2330;48.158;11.816;2024-02-04T07:15:28;6.30;98.50
4635;DHT22;2330;48.158;11.816;2024-02-04T07:17:55;6.30;98.50
4635;DHT22;2330;48.158;11.816;2024-02-04T07:20:22;6.30;98.50
4635;DHT22;2330;48.158;11.816;2024-02-04T07:22:49;6.30;98.50
4635;DHT22;2330;48.158;11.816;2024-02-04T07:25:15;6.40;98.50
4635;DHT22;2330;48.158;11.816;2024-02-04T07:27:42;6.40;98.50
4635;DHT22;2330;48.158;11.816;2024-02-04T07:30:09;6.40;98.50
4635;DHT22;2330;48.158;11.816;2024-02-04T07:32:36;6.40;98.50
4635;DHT22;2330;48.158;11.816;2024-02-04T07:35:05;6.50;98.50
4635;DHT22;2330;48.158;11.816;2024-02-04T07:37:33;6.50;98.50
4635;DHT22;2330;48.158;11.816;2024-02-04T07:40:00;6.50;98.50
4635;DHT22;2330;48.158;11.816;2024-02-04T07:42:27;6.50;98.50
4635;DHT22;2330;48.158;11.816;2024-02-04T07:44:54;6.50;98.50
4635;DHT22;2330;48.158;11.816;2024-02-04T07:47:21;6.60;98.50
4635;DHT22;2330;48.158;11.816;2024-02-04T07:49:48;6.60;98.50
4635;DHT22;2330;48.158;11.816;2024-02-04T07:52:16;6.70;98.50
4635;DHT22;2330;48.158;11.816;2024-02-04T07:54:43;6.70;98.50
4635;DHT22;2330;48.158;11.816;2024-02-04T07:57:10;6.70;98.50
4635;DHT22;2330;48.158;11.816;2024-02-04T07:59:37;6.80;98.50
4635;DHT22;2330;48.158;11.816;2024-02-04T08:02:04;6.80;98.50
4635;DHT22;2330;48.158;11.816;2024-02-04T08:04:31;6.90;98.50
4635;DHT22;2330;48.158;11.816;2024-02-04T08:06:58;7.00;98.50
4635;DHT22;2330;48.158;11.816;2024-02-04T08:09:25;7.00;98.50
4635;DHT22;2330;48.158;11.816;2024-02-04T08:11:52;7.00;98.50
4635;DHT22;2330;48.158;11.816;2024-02-04T08:14:22;7.10;98.50
4635;DHT22;2330;48.158;11.816;2024-02-04T08:16:49;7.20;98.50
4635;DHT22;2330;48.158;11.816;2024-02-04T08:19:16;7.30;98.50
4635;DHT22;2330;48.158;11.816;2024-02-04T08:21:43;7.30;98.50
4635;DHT22;2330;48.158;11.816;2024-02-04T08:24:10;7.30;98.50
4635;DHT22;2330;48.158;11.816;2024-02-04T08:26:37;7.30;98.50
4635;DHT22;2330;48.158;11.816;2024-02-04T08:29:04;7.40;98.50
4635;DHT22;2330;48.158;11.816;2024-02-04T08:31:32;7.50;98.50
4635;DHT22;2330;48.158;11.816;2024-02-04T08:34:00;7.50;98.50
4635;DHT22;2330;48.158;11.816;2024-02-04T08:36:28;7.60;98.50
4635;DHT22;2330;48.158;11.816;2024-02-04T08:38:55;7.60;98.50
4635;DHT22;2330;48.158;11.816;2024-02-04T08:41:22;7.70;98.50
4635;DHT22;2330;48.158;11.816;2024-02-04T08:43:49;7.70;98.50
4635;DHT22;2330;48.158;11.816;2024-02-04T08:46:15;7.70;98.50
4635;DHT22;2330;48.158;11.816;2024-02-04T08:48:42;7.80;98.50
4635;DHT22;2330;48.158;11.816;2024-02-04T08:51:13;7.80;98.50
4635;DHT22;2330;48.158;11.816;2024-02-04T08:53:40;7.90;98.50
4635;DHT22;2330;48.158;11.816;2024-02-04T08:56:07;8.00;98.50
4635;DHT22;2330;48.158;11.816;2024-02-04T08:58:35;8.00;98.50
4635;DHT22;2330;48.158;11.816;2024-02-04T09:01:04;8.00;98.50
4635;DHT22;2330;48.158;11.816;2024-02-04T09:03:33;8.00;98.50
4635;DHT22;2330;48.158;11.816;2024-02-04T09:06:00;8.00;98.50
4635;DHT22;2330;48.158;11.816;2024-02-04T09:08:27;8.10;98.50
4635;DHT22;2330;48.158;11.816;2024-02-04T09:10:54;8.10;98.50
4635;DHT22;2330;48.158;11.816;2024-02-04T09:13:21;8.20;98.50
4635;DHT22;2330;48.158;11.816;2024-02-04T09:15:49;8.20;98.50
4635;DHT22;2330;48.158;11.816;2024-02-04T09:18:17;8.20;98.50
4635;DHT22;2330;48.158;11.816;2024-02-04T09:20:44;8.40;98.50
4635;DHT22;2330;48.158;11.816;2024-02-04T09:23:14;8.40;98.50
4635;DHT22;2330;48.158;11.816;2024-02-04T09:25:41;8.40;98.50
4635;DHT22;2330;48.158;11.816;2024-02-04T09:28:08;8.50;98.50
4635;DHT22;2330;48.158;11.816;2024-02-04T09:30:35;8.60;98.50
4635;DHT22;2330;48.158;11.816;2024-02-04T09:33:02;8.70;98.50
4635;DHT22;2330;48.158;11.816;2024-02-04T09:35:30;8.70;98.50
4635;DHT22;2330;48.158;11.816;2024-02-04T09:37:57;8.70;98.50
4635;DHT22;2330;48.158;11.816;2024-02-04T09:40:24;8.60;98.50
4635;DHT22;2330;48.158;11.816;2024-02-04T09:42:51;8.60;98.50
4635;DHT22;2330;48.158;11.816;2024-02-04T09:45:19;8.70;98.50
4635;DHT22;2330;48.158;11.816;2024-02-04T09:47:47;8.60;98.50
4635;DHT22;2330;48.158;11.816;2024-02-04T09:50:17;8.60;98.50
4635;DHT22;2330;48.158;11.816;2024-02-04T09:52:50;8.70;98.50
4635;DHT22;2330;48.158;11.816;2024-02-04T09:55:20;8.70;98.50
4635;DHT22;2330;48.158;11.816;2024-02-04T09:57:48;8.70;98.50
4635;DHT22;2330;48.158;11.816;2024-02-04T10:00:18;8.70;98.50
4635;DHT22;2330;48.158;11.816;2024-02-04T10:02:50;8.70;98.50
4635;DHT22;2330;48.158;11.816;2024-02-04T10:05:17;8.70;98.50
4635;DHT22;2330;48.158;11.816;2024-02-04T10:07:44;8.80;98.50
4635;DHT22;2330;48.158;11.816;2024-02-04T10:10:12;8.80;98.50
4635;DHT22;2330;48.158;11.816;2024-02-04T10:12:40;8.80;98.50
4635;DHT22;2330;48.158;11.816;2024-02-04T10:15:09;8.80;98.50
4635;DHT22;2330;48.158;11.816;2024-02-04T10:17:36;8.90;98.50
4635;DHT22;2330;48.158;11.816;2024-02-04T10:20:03;9.00;98.50
4635;DHT22;2330;48.158;11.816;2024-02-04T10:22:30;9.00;98.50
4635;DHT22;2330;48.158;11.816;2024-02-04T10:25:09;8.90;98.50
4635;DHT22;2330;48.158;11.816;2024-02-04T10:27:40;8.90;98.50
4635;DHT22;2330;48.158;11.816;2024-02-04T10:30:07;9.00;98.50
4635;DHT22;2330;48.158;11.816;2024-02-04T10:32:34;9.00;98.50
4635;DHT22;2330;48.158;11.816;2024-02-04T10:35:01;9.10;98.50
4635;DHT22;2330;48.158;11.816;2024-02-04T10:37:29;9.20;98.50
4635;DHT22;2330;48.158;11.816;2024-02-04T10:39:56;9.20;98.50
4635;DHT22;2330;48.158;11.816;2024-02-04T10:42:27;9.10;98.50
4635;DHT22;2330;48.158;11.816;2024-02-04T10:44:55;9.10;98.50
4635;DHT22;2330;48.158;11.816;2024-02-04T10:47:29;9.10;98.50
4635;DHT22;2330;48.158;11.816;2024-02-04T10:49:58;9.10;98.50
4635;DHT22;2330;48.158;11.816;2024-02-04T10:52:28;9.10;98.50
4635;DHT22;2330;48.158;11.816;2024-02-04T10:54:57;9.10;98.50
4635;DHT22;2330;48.158;11.816;2024-02-04T10:57:24;9.20;98.50
4635;DHT22;2330;48.158;11.816;2024-02-04T10:59:53;9.30;98.50
4635;DHT22;2330;48.158;11.816;2024-02-04T11:02:20;9.40;98.50
4635;DHT22;2330;48.158;11.816;2024-02-04T11:04:50;9.50;98.50
4635;DHT22;2330;48.158;11.816;2024-02-04T11:07:17;9.40;98.50
4635;DHT22;2330;48.158;11.816;2024-02-04T11:09:46;9.40;98.50
4635;DHT22;2330;48.158;11.816;2024-02-04T11:12:18;9.40;98.50
4635;DHT22;2330;48.158;11.816;2024-02-04T11:14:50;9.60;98.50
4635;DHT22;2330;48.158;11.816;2024-02-04T11:17:30;9.50;98.50
4635;DHT22;2330;48.158;11.816;2024-02-04T11:20:21;9.70;98.50
4635;DHT22;2330;48.158;11.816;2024-02-04T11:23:32;9.50;98.50
4635;DHT22;2330;48.158;11.816;2024-02-04T11:26:01;9.50;98.50
4635;DHT22;2330;48.158;11.816;2024-02-04T11:28:28;9.40;98.50
4635;DHT22;2330;48.158;11.816;2024-02-04T11:30:56;9.40;98.50
4635;DHT22;2330;48.158;11.816;2024-02-04T11:33:23;9.40;98.50
4635;DHT22;2330;48.158;11.816;2024-02-04T11:36:04;9.40;98.50
4635;DHT22;2330;48.158;11.816;2024-02-04T11:38:35;9.40;98.50
4635;DHT22;2330;48.158;11.816;2024-02-04T11:41:03;9.50;98.50
4635;DHT22;2330;48.158;11.816;2024-02-04T11:43:33;9.60;98.50
4635;DHT22;2330;48.158;11.816;2024-02-04T11:46:03;9.70;98.50
4635;DHT22;2330;48.158;11.816;2024-02-04T11:48:34;10.00;98.50
4635;DHT22;2330;48.158;11.816;2024-02-04T11:51:04;10.30;98.50
4635;DHT22;2330;48.158;11.816;2024-02-04T11:53:33;10.40;98.50
4635;DHT22;2330;48.158;11.816;2024-02-04T11:56:00;10.40;98.50
4635;DHT22;2330;48.158;11.816;2024-02-04T11:58:27;10.30;98.50
4635;DHT22;2330;48.158;11.816;2024-02-04T12:00:56;10.20;98.50
4635;DHT22;2330;48.158;11.816;2024-02-04T12:03:32;10.30;98.50
4635;DHT22;2330;48.158;11.816;2024-02-04T12:05:59;10.30;98.50
4635;DHT22;2330;48.158;11.816;2024-02-04T12:08:28;10.20;98.50
4635;DHT22;2330;48.158;11.816;2024-02-04T12:10:55;10.20;98.50
4635;DHT22;2330;48.158;11.816;2024-02-04T12:13:22;10.20;98.50
4635;DHT22;2330;48.158;11.816;2024-02-04T12:15:50;10.20;98.50
4635;DHT22;2330;48.158;11.816;2024-02-04T12:18:17;10.20;98.50
4635;DHT22;2330;48.158;11.816;2024-02-04T12:20:48;10.20;98.50
4635;DHT22;2330;48.158;11.816;2024-02-04T12:23:18;10.20;98.50
4635;DHT22;2330;48.158;11.816;2024-02-04T12:25:50;10.20;98.50
4635;DHT22;2330;48.158;11.816;2024-02-04T12:28:17;10.20;98.50
4635;DHT22;2330;48.158;11.816;2024-02-04T12:30:53;10.20;98.50
4635;DHT22;2330;48.158;11.816;2024-02-04T12:33:25;10.30;98.50
4635;DHT22;2330;48.158;11.816;2024-02-04T12:35:52;10.40;98.50
4635;DHT22;2330;48.158;11.816;2024-02-04T12:38:22;10.40;98.50
4635;DHT22;2330;48.158;11.816;2024-02-04T12:40:49;10.40;98.50
4635;DHT22;2330;48.158;11.816;2024-02-04T12:43:17;10.30;98.50
4635;DHT22;2330;48.158;11.816;2024-02-04T12:45:44;10.20;98.50
4635;DHT22;2330;48.158;11.816;2024-02-04T12:48:14;10.30;98.50
4635;DHT22;2330;48.158;11.816;2024-02-04T12:50:41;10.30;98.50
4635;DHT22;2330;48.158;11.816;2024-02-04T12:53:09;10.20;98.50
4635;DHT22;2330;48.158;11.816;2024-02-04T12:55:38;10.20;98.50
4635;DHT22;2330;48.158;11.816;2024-02-04T12:58:10;10.30;98.50
4635;DHT22;2330;48.158;11.816;2024-02-04T13:00:39;10.30;98.50
4635;DHT22;2330;48.158;11.816;2024-02-04T13:03:07;10.40;98.50
4635;DHT22;2330;48.158;11.816;2024-02-04T13:05:37;10.40;98.50
4635;DHT22;2330;48.158;11.816;2024-02-04T13:08:05;10.40;98.50
4635;DHT22;2330;48.158;11.816;2024-02-04T13:10:34;10.40;98.50
4635;DHT22;2330;48.158;11.816;2024-02-04T13:13:02;10.30;98.50
4635;DHT22;2330;48.158;11.816;2024-02-04T13:15:32;10.30;98.50
4635;DHT22;2330;48.158;11.816;2024-02-04T13:18:00;10.30;98.50
4635;DHT22;2330;48.158;11.816;2024-02-04T13:20:27;10.30;98.50
4635;DHT22;2330;48.158;11.816;2024-02-04T13:22:57;10.40;98.50
4635;DHT22;2330;48.158;11.816;2024-02-04T13:25:27;10.40;98.50
4635;DHT22;2330;48.158;11.816;2024-02-04T13:27:54;10.40;98.50
4635;DHT22;2330;48.158;11.816;2024-02-04T13:30:21;10.40;98.50
4635;DHT22;2330;48.158;11.816;2024-02-04T13:32:48;10.50;98.50
4635;DHT22;2330;48.158;11.816;2024-02-04T13:35:14;10.50;98.50
4635;DHT22;2330;48.158;11.816;2024-02-04T13:37:47;10.40;98.50
4635;DHT22;2330;48.158;11.816;2024-02-04T13:40:18;10.40;98.50
4635;DHT22;2330;48.158;11.816;2024-02-04T13:42:46;10.40;98.50
4635;DHT22;2330;48.158;11.816;2024-02-04T13:45:14;10.40;98.50
4635;DHT22;2330;48.158;11.816;2024-02-04T13:47:42;10.30;98.50
4635;DHT22;2330;48.158;11.816;2024-02-04T13:50:10;10.30;98.50
4635;DHT22;2330;48.158;11.816;2024-02-04T13:52:38;10.30;98.50
4635;DHT22;2330;48.158;11.816;2024-02-04T13:55:05;10.30;98.50
4635;DHT22;2330;48.158;11.816;2024-02-04T13:57:33;10.30;98.50
4635;DHT22;2330;48.158;11.816;2024-02-04T14:00:01;10.30;98.50
4635;DHT22;2330;48.158;11.816;2024-02-04T14:02:30;10.30;98.50
4635;DHT22;2330;48.158;11.816;2024-02-04T14:04:58;10.30;98.50
4635;DHT22;2330;48.158;11.816;2024-02-04T14:07:25;10.30;98.50
4635;DHT22;2330;48.158;11.816;2024-02-04T14:09:53;10.40;98.50
4635;DHT22;2330;48.158;11.816;2024-02-04T14:12:20;10.30;98.50
4635;DHT22;2330;48.158;11.816;2024-02-04T14:14:47;10.30;98.50
4635;DHT22;2330;48.158;11.816;2024-02-04T14:17:14;10.30;98.50
4635;DHT22;2330;48.158;11.816;2024-02-04T14:19:40;10.30;98.50
4635;DHT22;2330;48.158;11.816;2024-02-04T14:22:07;10.30;98.50
4635;DHT22;2330;48.158;11.816;2024-02-04T14:24:34;10.30;98.50
4635;DHT22;2330;48.158;11.816;2024-02-04T14:27:02;10.40;98.50
4635;DHT22;2330;48.158;11.816;2024-02-04T14:29:29;10.40;98.50
4635;DHT22;2330;48.158;11.816;2024-02-04T14:31:56;10.50;98.50
4635;DHT22;2330;48.158;11.816;2024-02-04T14:34:24;10.50;98.50
4635;DHT22;2330;48.158;11.816;2024-02-04T14:36:52;10.50;98.50
4635;DHT22;2330;48.158;11.816;2024-02-04T14:39:19;10.50;98.50
4635;DHT22;2330;48.158;11.816;2024-02-04T14:41:46;10.50;98.50
4635;DHT22;2330;48.158;11.816;2024-02-04T14:44:13;10.50;98.50
4635;DHT22;2330;48.158;11.816;2024-02-04T14:46:40;10.50;98.50
4635;DHT22;2330;48.158;11.816;2024-02-04T14:49:06;10.40;98.50
4635;DHT22;2330;48.158;11.816;2024-02-04T14:51:34;10.40;98.50
4635;DHT22;2330;48.158;11.816;2024-02-04T14:54:02;10.40;98.50
4635;DHT22;2330;48.158;11.816;2024-02-04T14:56:29;10.40;98.50
4635;DHT22;2330;48.158;11.816;2024-02-04T14:58:56;10.50;98.50
4635;DHT22;2330;48.158;11.816;2024-02-04T15:01:23;10.40;98.50
4635;DHT22;2330;48.158;11.816;2024-02-04T15:03:50;10.40;98.50
4635;DHT22;2330;48.158;11.816;2024-02-04T15:06:17;10.40;98.50
4635;DHT22;2330;48.158;11.816;2024-02-04T15:08:44;10.50;98.50
4635;DHT22;2330;48.158;11.816;2024-02-04T15:11:10;10.50;98.50
4635;DHT22;2330;48.158;11.816;2024-02-04T15:13:37;10.50;98.50
4635;DHT22;2330;48.158;11.816;2024-02-04T15:16:05;10.50;98.50
4635;DHT22;2330;48.158;11.816;2024-02-04T15:18:33;10.50;98.50
4635;DHT22;2330;48.158;11.816;2024-02-04T15:21:02;10.50;98.50
4635;DHT22;2330;48.158;11.816;2024-02-04T15:23:30;10.60;98.50
4635;DHT22;2330;48.158;11.816;2024-02-04T15:25:58;10.60;98.50
4635;DHT22;2330;48.158;11.816;2024-02-04T15:28:25;10.60;98.50
4635;DHT22;2330;48.158;11.816;2024-02-04T15:30:52;10.50;98.50
4635;DHT22;2330;48.158;11.816;2024-02-04T15:33:19;10.60;98.50
4635;DHT22;2330;48.158;11.816;2024-02-04T15:35:46;10.70;98.50
4635;DHT22;2330;48.158;11.816;2024-02-04T15:38:13;10.70;98.50
4635;DHT22;2330;48.158;11.816;2024-02-04T15:40:44;10.70;98.50
4635;DHT22;2330;48.158;11.816;2024-02-04T15:43:11;10.70;98.50
4635;DHT22;2330;48.158;11.816;2024-02-04T15:45:38;10.60;98.50
4635;DHT22;2330;48.158;11.816;2024-02-04T15:48:06;10.60;98.50
4635;DHT22;2330;48.158;11.816;2024-02-04T15:50:35;10.60;98.50
4635;DHT22;2330;48.158;11.816;2024-02-04T15:53:05;10.60;98.50
4635;DHT22;2330;48.158;11.816;2024-02-04T15:55:32;10.60;98.50
4635;DHT22;2330;48.158;11.816;2024-02-04T15:57:59;10.70;98.50
4635;DHT22;2330;48.158;11.816;2024-02-04T16:00:27;10.70;98.50
4635;DHT22;2330;48.158;11.816;2024-02-04T16:02:55;10.70;98.50